Terminal Aerodrome Forecast
Issued by NWS

Home | Current Version | Previous Version | Text Only | Print | Product List | Glossary On
Versions: 1 2 3 4 5 6 7 8 9 10 11 12 13 14 15 16 17 18 19 20 21 22 23 24 25 26 27 28 29 30
000
FTUS41 KBUF 251900 AAA
TAFJHW
TAF AMD
KJHW 251931Z 2520/2618 05005KT P6SM SCT015 BKN200
     FM252200 04007KT P6SM OVC070
     FM260500 07007KT 4SM -SN OVC035
     FM260700 07008KT 2SM -SN OVC015
     FM261000 08009KT 1SM -SN OVC007
     FM261600 08009KT 2SM -SN OVC007
      AMD LTD TO CLD VIS AND WIND=

USA.gov is the U.S. government's official web portal to all federal, state and local government web resources and services.